Time;durP1;ratioP1;P1;durP2;ratioP2;P2;SDS_P1;SDS_P2;PMS_P1;PMS_P2;Temp;Humidity;BMP_temperature;BMP_pressure;BME280_temperature;BME280_humidity;BME280_pressure;Samples;Min_cycle;Max_cycle;Signal;HPM_P1;HPM_P2
2022/04/14 00:01:37;;;;;;;5.75;4.00;;;10.90;99.90;;;;;;4914426;29;20048;-71
2022/04/14 00:04:04;;;;;;;8.65;4.47;;;10.90;99.90;;;;;;4915864;29;20147;-70
2022/04/14 00:06:31;;;;;;;10.45;4.53;;;10.90;99.90;;;;;;4915831;29;20055;-71
2022/04/14 00:08:58;;;;;;;11.40;4.35;;;10.90;99.90;;;;;;4896439;29;20104;-71
2022/04/14 00:11:25;;;;;;;8.73;4.65;;;10.80;99.90;;;;;;4908984;29;20051;-71
2022/04/14 00:13:52;;;;;;;8.73;4.97;;;10.80;99.90;;;;;;4916133;29;20135;-71
2022/04/14 00:16:19;;;;;;;8.88;4.43;;;10.80;99.90;;;;;;4914666;29;20040;-71
2022/04/14 00:18:46;;;;;;;6.63;4.18;;;10.70;99.90;;;;;;4914437;29;20404;-71
2022/04/14 00:21:14;;;;;;;13.05;5.38;;;10.70;99.90;;;;;;4915670;29;20044;-70
2022/04/14 00:23:40;;;;;;;10.40;4.30;;;10.60;99.90;;;;;;4898673;29;20059;-71
2022/04/14 00:26:07;;;;;;;9.52;3.55;;;10.60;99.90;;;;;;4915778;29;20419;-71
2022/04/14 00:28:34;;;;;;;7.40;3.45;;;10.60;99.90;;;;;;4898466;29;20107;-70
2022/04/14 00:31:04;;;;;;;8.00;4.15;;;10.50;99.90;;;;;;4930490;29;20048;-71
2022/04/14 00:33:31;;;;;;;;;;;10.50;99.90;;;;;;4913808;29;20059;-71
2022/04/14 00:35:58;;;;;;;8.05;3.85;;;10.40;99.90;;;;;;4914122;29;19927;-71
2022/04/14 00:38:25;;;;;;;10.20;4.20;;;10.40;99.90;;;;;;4897968;29;20064;-71
2022/04/14 00:40:53;;;;;;;9.70;4.95;;;10.40;99.90;;;;;;4914455;29;20424;-71
2022/04/14 00:43:23;;;;;;;9.48;4.45;;;10.40;99.90;;;;;;4914902;29;20590;-71
2022/04/14 00:45:50;;;;;;;7.43;4.20;;;10.30;99.90;;;;;;4898631;29;20064;-71
2022/04/14 00:48:17;;;;;;;10.60;4.82;;;10.30;99.90;;;;;;4915053;29;20098;-71
2022/04/14 00:50:44;;;;;;;9.30;4.45;;;10.30;99.90;;;;;;4914130;29;20071;-71
2022/04/14 00:53:11;;;;;;;7.28;4.30;;;10.30;99.90;;;;;;4898561;29;20103;-71
2022/04/14 00:55:38;;;;;;;11.20;3.97;;;10.30;99.90;;;;;;4911356;29;20661;-71
2022/04/14 00:58:05;;;;;;;7.57;4.10;;;10.20;99.90;;;;;;4914791;29;20059;-71
2022/04/14 01:00:32;;;;;;;7.00;3.65;;;10.20;99.90;;;;;;4882828;29;20496;-71
2022/04/14 01:02:59;;;;;;;7.85;4.38;;;10.10;99.90;;;;;;4915186;29;20052;-70
2022/04/14 01:05:26;;;;;;;7.32;4.30;;;10.10;99.90;;;;;;4892484;29;20107;-71
2022/04/14 01:07:54;;;;;;;9.30;3.58;;;10.10;99.90;;;;;;4898159;29;20063;-71
2022/04/14 01:10:21;;;;;;;6.80;3.73;;;10.10;99.90;;;;;;4915267;29;20048;-71
2022/04/14 01:12:48;;;;;;;8.35;4.07;;;10.00;99.90;;;;;;4897890;29;20056;-71
2022/04/14 01:15:15;;;;;;;12.73;4.55;;;10.00;99.90;;;;;;4913873;29;20461;-71
2022/04/14 01:17:42;;;;;;;8.55;4.30;;;10.00;99.90;;;;;;4913499;29;20063;-71
2022/04/14 01:20:13;;;;;;;7.93;4.32;;;10.00;99.90;;;;;;4898104;29;20524;-71
2022/04/14 01:22:45;;;;;;;7.40;4.65;;;9.90;99.90;;;;;;4914573;29;20476;-71
2022/04/14 01:25:12;;;;;;;5.57;3.83;;;9.90;99.90;;;;;;4915711;29;20052;-71
2022/04/14 01:27:38;;;;;;;8.23;4.32;;;9.90;99.90;;;;;;4898303;29;20044;-72
2022/04/14 01:30:06;;;;;;;9.38;4.45;;;9.80;99.90;;;;;;4913445;29;20513;-71
2022/04/14 01:32:33;;;;;;;6.93;3.80;;;9.90;99.90;;;;;;4914717;29;20395;-71
2022/04/14 01:34:59;;;;;;;7.97;4.07;;;9.80;99.90;;;;;;4915099;29;20048;-71
2022/04/14 01:37:26;;;;;;;10.85;4.05;;;9.80;99.90;;;;;;4914513;29;20122;-72
2022/04/14 01:39:53;;;;;;;9.32;4.80;;;9.80;99.90;;;;;;4913882;29;20048;-71
2022/04/14 01:42:20;;;;;;;7.82;4.47;;;9.80;99.90;;;;;;4913912;29;20465;-71
2022/04/14 01:44:48;;;;;;;10.30;4.80;;;9.80;99.90;;;;;;4914782;29;20056;-71
2022/04/14 01:47:15;;;;;;;8.30;4.07;;;9.70;99.90;;;;;;4914392;29;20060;-71
2022/04/14 01:49:42;;;;;;;8.00;4.68;;;9.70;99.90;;;;;;4913901;29;20056;-71
2022/04/14 01:52:09;;;;;;;11.02;4.95;;;9.60;99.90;;;;;;4913548;29;20063;-71
2022/04/14 01:54:36;;;;;;;9.23;4.88;;;9.70;99.90;;;;;;4916034;29;20064;-71
2022/04/14 01:57:03;;;;;;;6.78;4.03;;;9.60;99.90;;;;;;4917019;29;20445;-72
2022/04/14 01:59:30;;;;;;;10.82;4.10;;;9.60;99.90;;;;;;4918571;29;20496;-72
2022/04/14 02:01:57;;;;;;;11.23;5.13;;;9.60;99.90;;;;;;4918240;29;20123;-71
2022/04/14 02:04:25;;;;;;;6.60;3.97;;;9.50;99.90;;;;;;4918329;29;20569;-71
2022/04/14 02:06:52;;;;;;;11.73;5.10;;;9.50;99.90;;;;;;4917912;29;20044;-72
2022/04/14 02:09:19;;;;;;;9.60;4.15;;;9.40;99.90;;;;;;4917785;29;20048;-72
2022/04/14 02:11:45;;;;;;;9.57;4.25;;;9.40;99.90;;;;;;4917185;29;20421;-71
2022/04/14 02:14:12;;;;;;;10.40;5.20;;;9.40;99.90;;;;;;4915871;29;20048;-72
2022/04/14 02:16:39;;;;;;;9.05;4.00;;;9.40;99.90;;;;;;4917933;29;20934;-71
2022/04/14 02:19:06;;;;;;;7.10;3.92;;;9.30;99.90;;;;;;4900875;29;20048;-71
2022/04/14 02:21:33;;;;;;;10.00;4.47;;;9.30;99.90;;;;;;4916296;29;20048;-71
2022/04/14 02:24:00;;;;;;;9.18;4.28;;;9.30;99.90;;;;;;4918116;29;20048;-72
2022/04/14 02:26:27;;;;;;;7.47;4.45;;;9.30;99.90;;;;;;4917480;29;20056;-71
2022/04/14 02:28:54;;;;;;;9.95;5.32;;;9.20;99.90;;;;;;4917176;29;20107;-72
2022/04/14 02:31:21;;;;;;;10.30;4.25;;;9.20;99.90;;;;;;4931952;29;20048;-72
2022/04/14 02:33:48;;;;;;;9.35;4.38;;;9.20;99.90;;;;;;4917040;29;20059;-72
2022/04/14 02:36:16;;;;;;;10.60;5.80;;;9.10;99.90;;;;;;4916569;29;20052;-72
2022/04/14 02:38:45;;;;;;;11.32;5.25;;;9.10;99.90;;;;;;4917539;29;20044;-72
2022/04/14 02:41:12;;;;;;;12.25;4.43;;;9.10;99.90;;;;;;4916089;29;20052;-72
2022/04/14 02:43:38;;;;;;;9.73;4.63;;;9.00;99.90;;;;;;4917774;29;20063;-72
2022/04/14 02:46:05;;;;;;;8.82;4.03;;;9.00;99.90;;;;;;4916359;29;20051;-72
2022/04/14 02:48:32;;;;;;;9.52;4.95;;;9.00;99.90;;;;;;4899978;29;20123;-72
2022/04/14 02:50:59;;;;;;;10.80;4.47;;;8.90;99.90;;;;;;4916083;29;20060;-72
2022/04/14 02:53:26;;;;;;;8.50;4.95;;;8.90;99.90;;;;;;4917180;29;20083;-70
2022/04/14 02:55:53;;;;;;;8.52;3.88;;;8.90;99.90;;;;;;4916356;29;20593;-71
2022/04/14 02:58:20;;;;;;;7.93;4.30;;;8.90;99.90;;;;;;4916281;29;20405;-72
2022/04/14 03:00:48;;;;;;;8.57;5.18;;;8.90;99.90;;;;;;4915426;29;20076;-72
2022/04/14 03:03:15;;;;;;;11.50;4.63;;;8.90;99.90;;;;;;4915943;29;20044;-72
2022/04/14 03:05:42;;;;;;;7.40;3.88;;;8.90;99.90;;;;;;4914961;29;20048;-71
2022/04/14 03:08:09;;;;;;;7.70;4.57;;;8.80;99.90;;;;;;4916352;29;20052;-71
2022/04/14 03:10:36;;;;;;;8.95;4.70;;;8.80;99.90;;;;;;4917616;29;20052;-72
2022/04/14 03:13:03;;;;;;;9.27;5.03;;;8.80;99.90;;;;;;4916180;29;20059;-71
2022/04/14 03:15:30;;;;;;;7.30;4.30;;;8.80;99.90;;;;;;4917121;29;20048;-71
2022/04/14 03:17:57;;;;;;;7.07;4.78;;;8.80;99.90;;;;;;4915192;29;20044;-71
2022/04/14 03:20:24;;;;;;;7.72;4.15;;;8.70;99.90;;;;;;4915425;29;20542;-71
2022/04/14 03:22:51;;;;;;;9.18;5.03;;;8.70;99.90;;;;;;4916672;29;20116;-71
2022/04/14 03:25:18;;;;;;;9.23;4.70;;;8.70;99.90;;;;;;4917055;29;20055;-72
2022/04/14 03:27:45;;;;;;;9.65;4.80;;;8.70;99.90;;;;;;4915423;29;20062;-72
2022/04/14 03:30:12;;;;;;;9.63;5.28;;;8.70;99.90;;;;;;4916864;29;20107;-71
2022/04/14 03:32:46;;;;;;;9.15;3.85;;;8.70;99.90;;;;;;4916467;29;20056;-71
2022/04/14 03:35:13;;;;;;;7.50;4.53;;;8.70;99.90;;;;;;4915483;29;20048;-71
2022/04/14 03:37:40;;;;;;;10.60;4.50;;;8.60;99.90;;;;;;4915362;29;20056;-71
2022/04/14 03:40:07;;;;;;;9.98;4.93;;;8.60;99.90;;;;;;4916504;29;20465;-72
2022/04/14 03:42:35;;;;;;;12.77;4.20;;;8.60;99.90;;;;;;4914904;29;20052;-71
2022/04/14 03:45:06;;;;;;;13.57;4.55;;;8.60;99.90;;;;;;4930525;29;20108;-71
2022/04/14 03:47:33;;;;;;;11.25;5.00;;;8.50;99.90;;;;;;4913676;29;20052;-71
2022/04/14 03:50:00;;;;;;;7.95;4.32;;;8.50;99.90;;;;;;4916324;29;20062;-71
2022/04/14 03:52:27;;;;;;;7.13;4.88;;;8.50;99.90;;;;;;4915011;29;20056;-70
2022/04/14 03:54:54;;;;;;;7.80;4.28;;;8.50;99.90;;;;;;4900520;29;20131;-71
2022/04/14 03:57:20;;;;;;;9.82;4.10;;;8.40;99.90;;;;;;4915659;29;20052;-71
2022/04/14 03:59:47;;;;;;;10.70;5.63;;;8.40;99.90;;;;;;4914501;29;20488;-72
2022/04/14 04:02:14;;;;;;;11.32;4.93;;;8.50;99.90;;;;;;4914875;29;20527;-71
2022/04/14 04:04:42;;;;;;;7.85;5.13;;;8.50;99.90;;;;;;4916180;29;20044;-68
2022/04/14 04:07:08;;;;;;;16.85;10.07;;;8.40;99.90;;;;;;4899830;29;20044;-71
2022/04/14 04:09:36;;;;;;;205.10;161.93;;;8.50;99.90;;;;;;4916412;29;20159;-67
2022/04/14 04:12:03;;;;;;;32.95;23.50;;;8.50;99.90;;;;;;4915571;29;20055;-69
2022/04/14 04:14:30;;;;;;;50.65;31.88;;;8.50;99.90;;;;;;4914297;29;20511;-70
2022/04/14 04:17:00;;;;;;;36.78;25.70;;;8.50;99.90;;;;;;4895982;29;20044;-70
2022/04/14 04:19:26;;;;;;;25.30;14.98;;;8.40;99.90;;;;;;4915014;29;20053;-70
2022/04/14 04:21:53;;;;;;;23.80;17.25;;;8.50;99.90;;;;;;4915299;29;20071;-70
2022/04/14 04:24:20;;;;;;;16.27;9.95;;;8.40;99.90;;;;;;4899355;29;20044;-69
2022/04/14 04:26:47;;;;;;;13.95;8.57;;;8.40;99.90;;;;;;4914612;29;20040;-70
2022/04/14 04:29:14;;;;;;;13.77;8.57;;;8.30;99.90;;;;;;4915657;29;20068;-69
2022/04/14 04:31:41;;;;;;;12.23;6.93;;;8.30;99.90;;;;;;4915924;29;20059;-70
2022/04/14 04:34:08;;;;;;;11.65;6.75;;;8.30;99.90;;;;;;4914227;29;20509;-69
2022/04/14 04:36:35;;;;;;;8.80;5.80;;;8.30;99.90;;;;;;4914530;29;20059;-70
2022/04/14 04:39:01;;;;;;;9.13;5.38;;;8.20;99.90;;;;;;4914753;29;20055;-70
2022/04/14 04:41:29;;;;;;;7.15;4.85;;;8.20;99.90;;;;;;4915585;29;20100;-69
2022/04/14 04:43:55;;;;;;;11.10;4.50;;;8.20;99.90;;;;;;4914755;29;20390;-69
2022/04/14 04:46:22;;;;;;;10.05;4.35;;;8.20;99.90;;;;;;4915057;29;20055;-69
2022/04/14 04:48:49;;;;;;;11.77;4.05;;;8.10;99.90;;;;;;4915653;29;20485;-70
2022/04/14 04:51:17;;;;;;;10.40;4.70;;;8.10;99.90;;;;;;4913980;29;20059;-69
2022/04/14 04:53:44;;;;;;;9.75;5.10;;;8.00;99.90;;;;;;4898596;29;20048;-69
2022/04/14 04:56:10;;;;;;;8.52;3.72;;;8.00;99.90;;;;;;4914663;29;20063;-70
2022/04/14 04:58:37;;;;;;;10.07;4.85;;;7.90;99.90;;;;;;4915237;29;20048;-69
2022/04/14 05:01:04;;;;;;;10.35;4.47;;;7.90;99.90;;;;;;4915401;29;20059;-70
2022/04/14 05:03:31;;;;;;;8.90;4.30;;;7.90;99.90;;;;;;4913824;29;20051;-70
2022/04/14 05:05:58;;;;;;;7.07;3.60;;;7.90;99.90;;;;;;4914228;29;20063;-69
2022/04/14 05:08:25;;;;;;;8.55;4.47;;;7.80;99.90;;;;;;4914979;29;20557;-70
2022/04/14 05:10:52;;;;;;;6.60;3.97;;;7.80;99.90;;;;;;4913965;29;20045;-70
2022/04/14 05:13:19;;;;;;;8.68;4.95;;;7.80;99.90;;;;;;4913877;29;20480;-70
2022/04/14 05:15:45;;;;;;;7.20;4.05;;;7.80;99.90;;;;;;4915091;29;20127;-71
2022/04/14 05:18:12;;;;;;;8.65;4.07;;;7.80;99.90;;;;;;4913993;29;20105;-70
2022/04/14 05:20:42;;;;;;;5.82;3.97;;;7.80;99.90;;;;;;4913094;29;20060;-70
2022/04/14 05:23:09;;;;;;;10.18;4.88;;;7.80;99.90;;;;;;4914904;29;20062;-70
2022/04/14 05:25:39;;;;;;;8.05;4.00;;;7.80;99.90;;;;;;4914168;29;20165;-70
2022/04/14 05:28:06;;;;;;;6.68;4.13;;;7.80;99.90;;;;;;4913622;29;20052;-70
2022/04/14 05:30:33;;;;;;;12.52;4.80;;;7.80;99.90;;;;;;4916111;29;20052;-70
2022/04/14 05:33:00;;;;;;;8.43;3.42;;;7.70;99.90;;;;;;4901510;29;20400;-70
2022/04/14 05:35:28;;;;;;;7.28;4.97;;;7.80;99.90;;;;;;4918807;29;20441;-70
2022/04/14 05:37:55;;;;;;;9.13;4.10;;;7.80;99.90;;;;;;4916155;29;20522;-70
2022/04/14 05:40:21;;;;;;;5.35;3.95;;;7.90;99.90;;;;;;4919226;29;20059;-70
2022/04/14 05:42:51;;;;;;;10.60;5.13;;;7.90;99.90;;;;;;4916570;29;20381;-69
2022/04/14 05:45:19;;;;;;;;;;;7.90;99.90;;;;;;4917854;29;20594;-70
2022/04/14 05:47:45;;;;;;;9.82;3.80;;;7.90;99.90;;;;;;4917114;29;19926;-70
2022/04/14 05:50:12;;;;;;;9.35;4.72;;;8.00;99.90;;;;;;4916951;29;20044;-70
2022/04/14 05:52:39;;;;;;;10.43;5.15;;;8.00;99.90;;;;;;4917748;29;20508;-70
2022/04/14 05:55:06;;;;;;;7.22;5.03;;;8.10;99.90;;;;;;4915773;29;20060;-70
2022/04/14 05:57:33;;;;;;;9.50;5.28;;;8.20;99.90;;;;;;4917329;29;20052;-67
2022/04/14 06:00:00;;;;;;;56.03;40.80;;;8.20;99.90;;;;;;4917292;29;20059;-69
2022/04/14 06:02:27;;;;;;;198.45;145.18;;;8.30;99.90;;;;;;4917224;29;20059;-66
2022/04/14 06:04:54;;;;;;;35.97;23.80;;;8.40;99.90;;;;;;4916261;29;20043;-71
2022/04/14 06:07:21;;;;;;;16.35;13.32;;;8.40;99.90;;;;;;4900519;29;20052;-68
2022/04/14 06:09:48;;;;;;;15.75;10.05;;;8.50;99.90;;;;;;4916100;29;20052;-71
2022/04/14 06:12:15;;;;;;;20.02;8.75;;;8.60;99.90;;;;;;4916543;29;20044;-70
2022/04/14 06:14:49;;;;;;;11.82;6.88;;;8.70;99.90;;;;;;4916303;29;20408;-70
2022/04/14 06:17:16;;;;;;;12.52;5.93;;;8.80;99.90;;;;;;4917044;29;20055;-72
2022/04/14 06:19:43;;;;;;;40.25;28.00;;;8.80;99.90;;;;;;4914600;29;20052;-71
2022/04/14 06:22:10;;;;;;;86.30;61.80;;;8.90;99.90;;;;;;4916012;29;20040;-71
2022/04/14 06:24:37;;;;;;;16.00;10.18;;;9.00;99.90;;;;;;4906772;29;20056;-71
2022/04/14 06:27:05;;;;;;;14.20;7.82;;;9.20;99.90;;;;;;4899680;29;20071;-72
2022/04/14 06:29:32;;;;;;;16.52;7.00;;;9.30;99.90;;;;;;4915638;29;20048;-70
2022/04/14 06:31:59;;;;;;;11.23;6.20;;;9.40;99.90;;;;;;4914389;29;20059;-72
2022/04/14 06:34:26;;;;;;;16.67;7.05;;;9.50;99.90;;;;;;4913422;29;20055;-70
2022/04/14 06:36:53;;;;;;;11.70;6.03;;;9.50;99.90;;;;;;4917020;29;20068;-71
2022/04/14 06:39:20;;;;;;;13.98;6.65;;;9.60;99.90;;;;;;4915742;29;20119;-70
2022/04/14 06:41:47;;;;;;;13.90;6.07;;;9.80;99.90;;;;;;4915291;29;20051;-69
2022/04/14 06:44:14;;;;;;;314.00;274.60;;;9.90;99.90;;;;;;4915007;29;20068;-71
2022/04/14 06:46:41;;;;;;;81.47;62.35;;;10.00;99.90;;;;;;4915060;29;20063;-68
2022/04/14 06:49:08;;;;;;;32.53;23.65;;;10.10;99.90;;;;;;4915614;29;20044;-70
2022/04/14 06:51:35;;;;;;;22.40;14.10;;;10.30;99.90;;;;;;4915395;29;20082;-69
2022/04/14 06:54:02;;;;;;;16.60;8.93;;;10.30;99.90;;;;;;4878243;29;1124913;-67
2022/04/14 06:56:29;;;;;;;14.25;6.93;;;10.40;99.90;;;;;;4915035;29;20055;-73
2022/04/14 06:58:55;;;;;;;13.70;6.88;;;10.50;99.90;;;;;;4917665;29;20059;-64
2022/04/14 07:01:25;;;;;;;13.95;5.97;;;10.70;99.90;;;;;;4916192;29;20052;-67
2022/04/14 07:03:52;;;;;;;;;;;10.80;99.90;;;;;;4916325;29;20076;-64
2022/04/14 07:06:19;;;;;;;19.20;8.00;;;10.90;99.90;;;;;;4917356;29;20283;-69
2022/04/14 07:08:46;;;;;;;9.90;6.50;;;11.00;99.90;;;;;;4915127;29;20040;-68
2022/04/14 07:11:13;;;;;;;11.25;5.97;;;11.10;99.90;;;;;;4915739;29;20059;-67
2022/04/14 07:13:39;;;;;;;10.98;5.78;;;11.20;99.90;;;;;;4917442;29;20044;-68
2022/04/14 07:16:06;;;;;;;19.17;7.20;;;11.30;99.90;;;;;;4916471;29;20146;-68
2022/04/14 07:18:34;;;;;;;11.95;6.38;;;11.40;99.90;;;;;;4917191;29;20051;-70
2022/04/14 07:21:01;;;;;;;11.30;6.57;;;11.40;99.90;;;;;;4917096;29;20484;-67
2022/04/14 07:23:27;;;;;;;14.30;6.93;;;11.50;99.90;;;;;;4919073;29;20051;-66
2022/04/14 07:25:54;;;;;;;10.18;6.28;;;11.60;99.90;;;;;;4917334;29;20064;-65
2022/04/14 07:28:21;;;;;;;14.60;7.10;;;11.70;99.90;;;;;;4916072;29;20052;-75
2022/04/14 07:30:54;;;;;;;10.07;6.47;;;11.80;99.90;;;;;;4915496;29;20063;-72
2022/04/14 07:33:21;;;;;;;13.95;7.70;;;11.80;99.90;;;;;;4899354;29;20052;-72
2022/04/14 07:35:50;;;;;;;13.82;6.22;;;11.90;99.90;;;;;;4914944;29;20055;-70
2022/04/14 07:38:17;;;;;;;13.25;6.90;;;12.00;99.90;;;;;;4916347;29;20044;-73
2022/04/14 07:40:44;;;;;;;10.98;6.57;;;12.00;99.90;;;;;;4916822;29;20048;-72
2022/04/14 07:43:11;;;;;;;14.27;7.60;;;12.10;99.90;;;;;;4916713;29;20492;-71
2022/04/14 07:45:39;;;;;;;12.63;8.00;;;12.20;99.90;;;;;;4916284;29;20067;-71
2022/04/14 07:48:07;;;;;;;16.20;12.45;;;12.30;99.90;;;;;;4899959;29;20063;-72
2022/04/14 07:50:33;;;;;;;48.80;40.28;;;12.40;99.90;;;;;;4914519;29;20056;-77
2022/04/14 07:53:01;;;;;;;13.77;9.35;;;12.50;99.90;;;;;;4914690;29;20123;-73
2022/04/14 07:55:31;;;;;;;10.68;7.82;;;12.60;99.90;;;;;;4915766;29;20559;-73
2022/04/14 07:58:05;;;;;;;10.38;7.78;;;12.60;99.90;;;;;;4916338;29;20050;-70
2022/04/14 08:00:32;;;;;;;13.15;7.90;;;12.70;99.90;;;;;;4890869;29;20052;-69
2022/04/14 08:03:00;;;;;;;12.30;6.80;;;12.70;99.90;;;;;;4916216;29;20044;-73
2022/04/14 08:05:28;;;;;;;14.73;7.15;;;12.80;99.90;;;;;;4916406;29;20082;-72
2022/04/14 08:07:55;;;;;;;11.60;7.72;;;12.80;99.90;;;;;;4915641;29;20064;-72
2022/04/14 08:10:22;;;;;;;14.43;8.65;;;12.90;99.90;;;;;;4916464;29;20056;-76
2022/04/14 08:12:49;;;;;;;16.30;8.13;;;12.90;99.90;;;;;;4916403;29;20052;-74
2022/04/14 08:15:16;;;;;;;9.95;7.45;;;13.00;99.90;;;;;;4915796;29;20511;-72
2022/04/14 08:17:44;;;;;;;12.70;8.48;;;13.10;99.90;;;;;;4916274;29;20071;-74
2022/04/14 08:20:12;;;;;;;12.70;7.82;;;13.20;99.90;;;;;;4912670;29;20066;-70
2022/04/14 08:22:58;;;;;;;14.52;7.65;;;13.20;99.90;;;;;;4914564;29;20052;-72
2022/04/14 08:25:33;;;;;;;13.02;8.05;;;13.30;99.90;;;;;;4930619;29;20072;-71
2022/04/14 08:28:01;;;;;;;15.80;7.20;;;13.40;99.90;;;;;;4915062;29;20056;-73
2022/04/14 08:30:29;;;;;;;13.15;7.45;;;13.40;99.90;;;;;;4914994;29;20052;-74
2022/04/14 08:32:57;;;;;;;11.95;7.22;;;13.50;99.90;;;;;;4914924;29;20044;-73
2022/04/14 08:35:27;;;;;;;14.67;7.43;;;13.50;99.90;;;;;;4908001;29;20135;-75
2022/04/14 08:37:54;;;;;;;10.70;6.68;;;13.60;99.90;;;;;;4903349;29;20400;-70
2022/04/14 08:40:22;;;;;;;11.10;5.28;;;13.70;99.90;;;;;;4915924;29;20138;-68
2022/04/14 08:42:53;;;;;;;17.85;7.05;;;13.80;99.90;;;;;;4916332;29;20067;-72
2022/04/14 08:45:21;;;;;;;9.35;6.30;;;14.00;99.90;;;;;;4914882;29;20058;-72
2022/04/14 08:47:49;;;;;;;35.57;8.70;;;14.10;99.90;;;;;;4915236;29;20380;-73
2022/04/14 08:50:16;;;;;;;27.45;8.20;;;14.20;99.90;;;;;;4915721;29;20048;-73
2022/04/14 08:52:43;;;;;;;28.70;8.27;;;14.40;99.90;;;;;;4913703;29;20048;-71
2022/04/14 08:55:11;;;;;;;14.45;5.30;;;14.40;99.90;;;;;;4914740;29;20062;-75
2022/04/14 08:57:41;;;;;;;33.08;8.48;;;14.50;99.90;;;;;;4914437;29;20050;-68
2022/04/14 09:00:10;;;;;;;52.55;7.60;;;14.60;99.90;;;;;;4912628;29;20048;-72
2022/04/14 09:02:37;;;;;;;13.57;4.75;;;14.90;99.90;;;;;;4913389;29;20044;-70
2022/04/14 09:05:05;;;;;;;14.85;4.75;;;15.00;99.90;;;;;;4913867;29;20499;-76
2022/04/14 09:07:33;;;;;;;63.83;10.70;;;15.00;99.90;;;;;;4929544;29;20044;-75
2022/04/14 09:09:59;;;;;;;15.00;6.07;;;15.10;99.90;;;;;;4913767;29;20063;-76
2022/04/14 09:12:27;;;;;;;13.18;5.43;;;15.20;99.90;;;;;;4914486;29;20044;-67
2022/04/14 09:14:53;;;;;;;12.95;4.43;;;15.20;99.90;;;;;;4909733;29;20052;-75
2022/04/14 09:17:20;;;;;;;7.47;3.97;;;15.20;99.90;;;;;;4896236;29;20052;-77
2022/04/14 09:19:48;;;;;;;11.25;5.00;;;15.30;99.90;;;;;;4908985;29;20056;-76
2022/04/14 09:22:15;;;;;;;9.50;4.65;;;15.40;99.90;;;;;;4898738;29;20048;-77
2022/04/14 09:24:43;;;;;;;8.82;4.55;;;15.50;99.90;;;;;;4913577;29;20096;-66
2022/04/14 09:27:23;;;;;;;6.43;3.63;;;15.40;99.90;;;;;;4910652;29;20048;-76
2022/04/14 09:29:50;;;;;;;8.43;4.07;;;15.50;99.90;;;;;;4913917;29;20060;-76
2022/04/14 09:32:30;;;;;;;13.43;4.82;;;15.50;99.90;;;;;;4914200;29;20111;-76
2022/04/14 09:34:58;;;;;;;8.43;4.25;;;15.70;99.90;;;;;;4914692;29;20055;-76
2022/04/14 09:37:26;;;;;;;9.82;4.53;;;15.80;99.90;;;;;;4912359;29;20063;-74
2022/04/14 09:40:02;;;;;;;9.20;3.85;;;15.80;99.90;;;;;;4913823;29;20415;-76
2022/04/14 09:42:31;;;;;;;7.03;3.40;;;15.90;99.90;;;;;;4930321;29;20162;-76
2022/04/14 09:45:20;;;;;;;7.53;3.70;;;16.00;99.90;;;;;;4913953;29;20064;-76
2022/04/14 09:48:04;;;;;;;7.43;3.40;;;16.10;99.90;;;;;;4915640;29;20459;-77
2022/04/14 09:50:35;;;;;;;8.48;4.25;;;16.20;99.90;;;;;;4915029;29;20060;-76
2022/04/14 09:53:07;;;;;;;14.75;4.72;;;16.40;99.90;;;;;;4915709;29;20055;-76
2022/04/14 09:55:49;;;;;;;15.13;5.82;;;16.40;99.90;;;;;;4915088;29;20508;-76
2022/04/14 09:58:18;;;;;;;6.45;3.40;;;16.50;99.90;;;;;;4909204;29;20040;-66
2022/04/14 10:00:46;;;;;;;7.95;4.03;;;16.60;99.90;;;;;;4907917;29;20048;-71
2022/04/14 10:03:18;;;;;;;8.25;3.97;;;16.90;99.90;;;;;;4891573;29;20059;-68
2022/04/14 10:05:46;;;;;;;14.95;5.05;;;17.00;99.90;;;;;;4911734;29;20131;-68
2022/04/14 10:08:13;;;;;;;8.02;3.97;;;17.10;99.90;;;;;;4910512;29;20052;-70
2022/04/14 10:10:50;;;;;;;21.30;4.75;;;17.20;99.90;;;;;;4908961;29;20781;-69
2022/04/14 10:13:17;;;;;;;18.52;4.47;;;17.20;99.90;;;;;;4894993;29;20056;-68
2022/04/14 10:15:46;;;;;;;7.90;3.60;;;17.30;99.90;;;;;;4908143;29;20048;-68
2022/04/14 10:18:14;;;;;;;16.77;4.57;;;17.20;99.90;;;;;;4906479;29;20095;-68
2022/04/14 10:20:42;;;;;;;8.52;3.40;;;17.20;99.90;;;;;;4910150;29;20059;-69
2022/04/14 10:23:11;;;;;;;12.85;4.28;;;17.30;99.90;;;;;;4908324;29;20048;-66
2022/04/14 10:25:38;;;;;;;19.23;5.10;;;17.40;99.90;;;;;;4928871;29;20515;-68
2022/04/14 10:28:12;;;;;;;36.00;7.05;;;17.50;99.90;;;;;;4914758;29;20306;-69
2022/04/14 10:30:40;;;;;;;13.43;4.60;;;17.70;99.90;;;;;;4911653;29;20067;-70
2022/04/14 10:33:07;;;;;;;20.90;3.95;;;17.80;99.90;;;;;;4913854;29;20055;-70
2022/04/14 10:35:34;;;;;;;8.88;3.25;;;17.90;99.90;;;;;;4900275;29;20056;-67
2022/04/14 10:38:22;;;;;;;5.95;2.97;;;17.80;96.90;;;;;;4915363;29;20051;-71
2022/04/14 10:40:57;;;;;;;16.50;3.63;;;17.80;97.90;;;;;;4905330;29;20051;-68
2022/04/14 10:43:24;;;;;;;28.15;4.95;;;17.70;96.20;;;;;;4911486;29;20044;-73
2022/04/14 10:45:55;;;;;;;12.57;4.47;;;17.80;97.10;;;;;;4895927;29;20495;-74
2022/04/14 10:48:31;;;;;;;10.00;3.67;;;17.80;96.30;;;;;;4916314;29;20063;-77
2022/04/14 10:51:29;;;;;;;5.00;2.83;;;17.80;95.60;;;;;;4915265;29;20420;-74
2022/04/14 10:54:00;;;;;;;9.85;2.85;;;17.90;93.60;;;;;;4917334;29;20044;-73
2022/04/14 10:56:44;;;;;;;3.75;2.15;;;17.90;92.50;;;;;;4917841;29;20052;-72
2022/04/14 10:59:22;;;;;;;4.07;2.42;;;17.90;92.60;;;;;;4917043;29;20056;-71
2022/04/14 11:01:52;;;;;;;4.70;2.55;;;17.80;91.40;;;;;;4901525;29;20084;-70
2022/04/14 11:04:25;;;;;;;4.90;2.20;;;17.70;91.80;;;;;;4917262;29;20127;-66
2022/04/14 11:06:52;;;;;;;4.10;2.63;;;17.80;92.00;;;;;;4927006;29;20048;-67
2022/04/14 11:09:38;;;;;;;8.73;2.83;;;17.80;92.50;;;;;;4916804;29;20048;-63
2022/04/14 11:12:21;;;;;;;5.40;2.15;;;17.80;91.50;;;;;;4917631;29;20492;-71
2022/04/14 11:15:05;;;;;;;6.35;2.72;;;17.80;91.50;;;;;;4900346;29;20060;-66
2022/04/14 11:17:37;;;;;;;7.43;2.35;;;17.70;91.20;;;;;;4897710;29;20053;-65
2022/04/14 11:20:22;;;;;;;2.97;2.17;;;17.70;92.80;;;;;;4898377;29;20135;-67
2022/04/14 11:23:08;;;;;;;3.05;1.88;;;17.80;89.40;;;;;;4900855;29;20540;-65
2022/04/14 11:25:41;;;;;;;2.88;1.98;;;17.70;90.10;;;;;;4915925;29;20056;-66
2022/04/14 11:28:24;;;;;;;5.60;2.42;;;17.80;90.40;;;;;;4915988;29;20105;-64
2022/04/14 11:31:14;;;;;;;4.38;2.17;;;17.80;90.00;;;;;;4915167;29;20047;-66
2022/04/14 11:33:45;;;;;;;8.07;3.38;;;17.90;90.20;;;;;;4904702;29;20052;-66
2022/04/14 11:36:17;;;;;;;4.75;2.08;;;17.90;89.60;;;;;;4912884;29;20058;-66
2022/04/14 11:39:04;;;;;;;5.68;2.30;;;18.00;89.50;;;;;;4914081;29;20067;-67
2022/04/14 11:41:36;;;;;;;4.85;2.15;;;18.10;87.10;;;;;;4896396;29;20048;-67
2022/04/14 11:44:10;;;;;;;4.68;2.53;;;18.20;88.50;;;;;;4913141;29;20688;-80
2022/04/14 11:46:41;;;;;;;5.75;2.58;;;18.30;86.40;;;;;;4912780;29;20059;-74
2022/04/14 11:49:09;;;;;;;6.40;2.60;;;18.30;89.30;;;;;;4905954;29;20068;-65
2022/04/14 11:51:43;;;;;;;4.63;2.65;;;18.50;88.30;;;;;;4916994;29;20052;-77
2022/04/14 11:54:10;;;;;;;5.93;1.83;;;18.60;84.50;;;;;;4916846;29;20052;-76
2022/04/14 11:56:58;;;;;;;5.90;2.88;;;18.60;85.80;;;;;;4916156;29;20096;-70
2022/04/14 11:59:33;;;;;;;13.43;3.13;;;18.80;87.40;;;;;;4914851;29;20048;-65
2022/04/14 12:02:05;;;;;;;6.85;2.25;;;18.80;82.60;;;;;;4915171;29;20040;-68
2022/04/14 12:04:39;;;;;;;5.10;2.50;;;19.00;87.30;;;;;;4914373;29;20072;-69
2022/04/14 12:07:06;;;;;;;3.38;2.47;;;19.20;83.40;;;;;;4910600;29;20055;-70
2022/04/14 12:09:34;;;;;;;4.57;2.45;;;19.40;81.60;;;;;;4908154;29;20048;-66
2022/04/14 12:12:14;;;;;;;5.97;2.35;;;19.60;86.40;;;;;;4911533;29;20067;-68
2022/04/14 12:14:42;;;;;;;9.57;2.72;;;19.80;82.10;;;;;;4913394;29;20980;-67
2022/04/14 12:17:09;;;;;;;5.85;2.78;;;20.00;84.20;;;;;;4910386;29;20059;-68
2022/04/14 12:19:42;;;;;;;4.85;2.13;;;20.10;81.80;;;;;;4913093;29;20048;-66
2022/04/14 12:22:10;;;;;;;6.60;2.58;;;20.20;78.30;;;;;;4915354;29;20055;-66
2022/04/14 12:24:37;;;;;;;11.23;2.58;;;20.30;77.70;;;;;;4906267;29;20415;-69
2022/04/14 12:27:04;;;;;;;5.70;2.17;;;20.40;82.00;;;;;;4908108;29;20052;-65
2022/04/14 12:29:31;;;;;;;11.07;2.17;;;20.60;78.40;;;;;;4921044;29;20059;-65
2022/04/14 12:32:09;;;;;;;4.80;2.35;;;20.50;77.80;;;;;;4919268;29;20051;-68
2022/04/14 12:34:40;;;;;;;5.88;2.30;;;20.50;77.80;;;;;;4919653;29;20108;-69
2022/04/14 12:37:13;;;;;;;12.63;3.42;;;20.40;74.70;;;;;;4905573;29;20070;-66
2022/04/14 12:39:55;;;;;;;9.90;2.80;;;20.20;76.00;;;;;;4903648;29;20096;-68
2022/04/14 12:42:30;;;;;;;14.05;3.75;;;20.30;78.70;;;;;;4913397;29;20091;-71
2022/04/14 12:45:04;;;;;;;10.32;2.40;;;20.40;77.30;;;;;;4913138;29;20075;-69
2022/04/14 12:47:31;;;;;;;7.63;2.58;;;20.40;75.80;;;;;;4915003;29;20469;-69
2022/04/14 12:49:58;;;;;;;4.03;2.10;;;20.40;75.60;;;;;;4897816;29;20059;-71
2022/04/14 12:52:26;;;;;;;3.92;2.10;;;20.50;74.90;;;;;;4914584;29;20067;-70
2022/04/14 12:54:53;;;;;;;6.90;5.20;;;20.40;75.90;;;;;;4901196;29;20059;-70